La Habra Heights, California
Current Conditions -  °F | °C
As of 11:53 PM on Thursday 23 Oct 2014 (Local Time) from KFUL Reporting Station
NA  
Wind Chill: 65°   Ceiling: NA
Heat Index: 65°   Visibility: 10mi
Dew Point: 54°   Wind: 0mph
Humidity: 68%   Direction: NA
Pressure: 29.95"   Gusts: NA
Location:  33.9421°N, 117.951°W
Report Text: KFUL 240653Z 00000KT 10SM 18/12 A2995 RMK AO2 SLP140 T01830122 $
Loading
Personal Weather Stations






























Interactive Weather Map
Tropical Storm Tracking
New forecast layout! Learn more

10-Day Weather Forecast

Advertisements
Track Severe Weather on mobile